Corona Del Mar, California
Current Conditions -  °F | °C
As of 5:53 AM on Tuesday 21 Oct 2014 (Local Time) from KSNA Reporting Station
Overcast Overcast  
Wind Chill: 66°   Ceiling: 1700
Heat Index: 66°   Visibility: 10mi
Dew Point: 59°   Wind: 5mph
Humidity: 78%   Direction: 100°E
Pressure: 29.9"   Gusts: NA
Location:  33.6°N, 117.87°W
Report Text: KSNA 211253Z 10004KT 10SM OVC017 19/15 A2990 RMK AO2 SLP123 T01890150
Loading
Personal Weather Stations






























Interactive Weather Map
Tropical Storm Tracking
New forecast layout! Learn more

10-Day Weather Forecast

Advertisements
Track Severe Weather on mobile